地図

経路データ

SID SEASON NUMBER BASIN SUBBASIN NAME ISO_TIME NATURE LAT LON WMO_WIND WMO_PRES WMO_AGENCY TRACK_TYPE DIST2LAND LANDFALL IFLAG USA_AGENCY USA_ATCF_ID USA_LAT USA_LON USA_RECORD USA_STATUS USA_WIND USA_PRES USA_SSHS USA_R34_NE USA_R34_SE USA_R34_SW USA_R34_NW USA_R50_NE USA_R50_SE USA_R50_SW USA_R50_NW USA_R64_NE USA_R64_SE USA_R64_SW USA_R64_NW USA_POCI USA_ROCI USA_RMW USA_EYE TOKYO_LAT TOKYO_LON TOKYO_GRADE TOKYO_WIND TOKYO_PRES TOKYO_R50_DIR TOKYO_R50_LONG TOKYO_R50_SHORT TOKYO_R30_DIR TOKYO_R30_LONG TOKYO_R30_SHORT TOKYO_LAND CMA_LAT CMA_LON CMA_CAT CMA_WIND CMA_PRES HKO_LAT HKO_LON HKO_CAT HKO_WIND HKO_PRES NEWDELHI_LAT NEWDELHI_LON NEWDELHI_GRADE NEWDELHI_WIND NEWDELHI_PRES NEWDELHI_CI NEWDELHI_DP NEWDELHI_POCI REUNION_LAT REUNION_LON REUNION_TYPE REUNION_WIND REUNION_PRES REUNION_TNUM REUNION_CI REUNION_RMW REUNION_R34_NE REUNION_R34_SE REUNION_R34_SW REUNION_R34_NW REUNION_R50_NE REUNION_R50_SE REUNION_R50_SW REUNION_R50_NW REUNION_R64_NE REUNION_R64_SE REUNION_R64_SW REUNION_R64_NW BOM_LAT BOM_LON BOM_TYPE BOM_WIND BOM_PRES BOM_TNUM BOM_CI BOM_RMW BOM_R34_NE BOM_R34_SE BOM_R34_SW BOM_R34_NW BOM_R50_NE BOM_R50_SE BOM_R50_SW BOM_R50_NW BOM_R64_NE BOM_R64_SE BOM_R64_SW BOM_R64_NW BOM_ROCI BOM_POCI BOM_EYE BOM_POS_METHOD BOM_PRES_METHOD NADI_LAT NADI_LON NADI_CAT NADI_WIND NADI_PRES WELLINGTON_LAT WELLINGTON_LON WELLINGTON_WIND WELLINGTON_PRES DS824_LAT DS824_LON DS824_STAGE DS824_WIND DS824_PRES TD9636_LAT TD9636_LON TD9636_STAGE TD9636_WIND TD9636_PRES TD9635_LAT TD9635_LON TD9635_WIND TD9635_PRES TD9635_ROCI NEUMANN_LAT NEUMANN_LON NEUMANN_CLASS NEUMANN_WIND NEUMANN_PRES MLC_LAT MLC_LON MLC_CLASS MLC_WIND MLC_PRES USA_GUST BOM_GUST BOM_GUST_PER REUNION_GUST REUNION_GUST_PER USA_SEAHGT USA_SEARAD_NE USA_SEARAD_SE USA_SEARAD_SW USA_SEARAD_NW STORM_SPEED STORM_DIR
1926247N24087 1926 39 NI BB NOT_NAMED 1926-09-04 00:00:00 TS 23.8000 87.2000 main 0 0 _________O____ -1 23.8000 87.2000 TC 30 4 259
1926247N24087 1926 39 NI BB NOT_NAMED 1926-09-04 03:00:00 TS 23.7667 87.0083 main 0 0 _________PO___ -1 23.7500 86.9125 TC 30 23.8000 87.2000 1 5 260
1926247N24087 1926 39 NI BB NOT_NAMED 1926-09-04 06:00:00 TS 23.7198 86.6988 main 0 0 _________OP___ -1 23.7000 86.6000 TC 30 23.7494 86.8469 1 6 261
1926247N24087 1926 39 NI BB NOT_NAMED 1926-09-04 09:00:00 TS 23.6709 86.3593 main 0 0 _________PP___ -1 23.6500 86.2500 TC 30 23.6987 86.5051 1 6 261
1926247N24087 1926 39 NI BB NOT_NAMED 1926-09-04 12:00:00 TS 23.6243 86.0429 main 0 0 _________OP___ -1 23.6000 85.9000 TC 30 23.6486 86.1858 1 6 260
1926247N24087 1926 39 NI BB NOT_NAMED 1926-09-04 15:00:00 TS 23.5675 85.7425 main 0 0 _________PO___ -1 23.5349 85.5849 TC 30 23.6000 85.9000 1 5 260
1926247N24087 1926 39 NI BB NOT_NAMED 1926-09-04 18:00:00 TS 23.5281 85.4754 main 0 0 _________OP___ -1 23.5000 85.3000 TC 30 23.5563 85.6507 1 5 265
1926247N24087 1926 39 NI BB NOT_NAMED 1926-09-04 21:00:00 TS 23.5254 85.2482 main 0 0 _________PP___ -1 23.5196 85.0873 TC 30 23.5311 85.4091 1 5 275
1926247N24087 1926 39 NI BB NOT_NAMED 1926-09-05 00:00:00 TS 23.5702 84.9689 main 0 0 _________OP___ -1 23.6000 84.8000 TC 30 23.5404 85.1379 1 7 282
1926247N24087 1926 39 NI BB NOT_NAMED 1926-09-05 03:00:00 TS 23.6639 84.5438 main 0 0 _________PO___ -1 23.7278 84.2876 TC 30 23.6000 84.8000 1 9 286
1926247N24087 1926 39 NI BB NOT_NAMED 1926-09-05 06:00:00 TS 23.8147 84.0198 main 0 0 _________OP___ -1 23.9000 83.7000 TC 30 23.7294 84.3396 1 10 290
1926247N24087 1926 39 NI BB NOT_NAMED 1926-09-05 09:00:00 TS 24.0029 83.4981 main 0 0 _________PP___ -1 24.0998 83.1850 TC 30 23.9059 83.8111 1 10 292
1926247N24087 1926 39 NI BB NOT_NAMED 1926-09-05 12:00:00 TS 24.2022 82.9760 main 0 0 _________OP___ -1 24.3000 82.7000 TC 30 24.1043 83.2519 1 10 292
1926247N24087 1926 39 NI BB NOT_NAMED 1926-09-05 15:00:00 TS 24.3786 82.4749 main 0 0 _________PO___ -1 24.4572 82.2498 TC 30 24.3000 82.7000 1 9 291
1926247N24087 1926 39 NI BB NOT_NAMED 1926-09-05 18:00:00 TS 24.5322 82.0092 main 0 0 _________OP___ -1 24.6000 81.8000 TC 30 24.4644 82.2184 1 9 290
1926247N24087 1926 39 NI BB NOT_NAMED 1926-09-05 21:00:00 TS 24.6894 81.5285 main 0 0 _________PP___ -1 24.7574 81.3075 TC 30 24.6213 81.7495 1 9 289
1926247N24087 1926 39 NI BB NOT_NAMED 1926-09-06 00:00:00 TS 24.8338 81.0405 main 0 0 _________OP___ -1 24.9000 80.8000 TC 30 24.7676 81.2809 1 9 287
1926247N24087 1926 39 NI BB NOT_NAMED 1926-09-06 03:00:00 TS 24.9536 80.5537 main 0 0 _________PO___ -1 25.0073 80.3073 TC 30 24.9000 80.8000 1 9 284
1926247N24087 1926 39 NI BB NOT_NAMED 1926-09-06 06:00:00 TS 25.0632 80.0406 main 0 0 _________OP___ -1 25.1000 79.8000 TC 30 25.0264 80.2812 1 10 283
1926247N24087 1926 39 NI BB NOT_NAMED 1926-09-06 09:00:00 TS 25.1762 79.5001 main 0 0 _________PP___ -1 25.2150 79.2501 TC 30 25.1374 79.7500 1 10 282
1926247N24087 1926 39 NI BB NOT_NAMED 1926-09-06 12:00:00 TS 25.2648 78.9594 main 0 0 _________OP___ -1 25.3000 78.7000 TC 30 25.2296 79.2188 1 10 278
1926247N24087 1926 39 NI BB NOT_NAMED 1926-09-06 15:00:00 TS 25.3037 78.4424 main 0 0 _________PO___ -1 25.3073 78.1847 TC 30 25.3000 78.7000 1 9 273
1926247N24087 1926 39 NI AS NOT_NAMED 1926-09-06 18:00:00 TS 25.3190 77.9489 main 0 0 _________OP___ -1 25.3000 77.7000 TC 30 25.3380 78.1978 1 9 273
1926247N24087 1926 39 NI AS NOT_NAMED 1926-09-06 21:00:00 TS 25.3497 77.4733 main 0 0 _________PP___ -1 25.3424 77.2351 TC 30 25.3570 77.7116 1 8 275
1926247N24087 1926 39 NI AS NOT_NAMED 1926-09-07 00:00:00 TS 25.3862 77.0224 main 0 0 _________OP___ -1 25.4000 76.8000 TC 30 25.3725 77.2447 1 8 275
1926247N24087 1926 39 NI AS NOT_NAMED 1926-09-07 03:00:00 TS 25.4212 76.5962 main 0 0 _________PO___ -1 25.4423 76.3924 TC 30 25.4000 76.8000 1 8 277
1926247N24087 1926 39 NI AS NOT_NAMED 1926-09-07 06:00:00 TS 25.4781 76.1832 main 0 0 _________OP___ -1 25.5000 76.0000 TC 30 25.4561 76.3663 1 8 281
1926247N24087 1926 39 NI AS NOT_NAMED 1926-09-07 09:00:00 TS 25.5597 75.7738 main 0 0 _________PP___ -1 25.5925 75.5925 TC 30 25.5270 75.9550 1 7 284
1926247N24087 1926 39 NI AS NOT_NAMED 1926-09-07 12:00:00 TS 25.6547 75.3831 main 0 0 _________OP___ -1 25.7000 75.2000 TC 30 25.6094 75.5662 1 7 286
1926247N24087 1926 39 NI AS NOT_NAMED 1926-09-07 15:00:00 TS 25.7500 75.0175 main 0 0 _________PO___ -1 25.7999 74.8349 TC 30 25.7000 75.2000 1 6 287
1926247N24087 1926 39 NI AS NOT_NAMED 1926-09-07 18:00:00 TS 25.8405 74.7031 main 0 0 _________OP___ -1 25.9000 74.5000 TC 30 25.7959 74.8555 1 6 288
1926247N24087 1926 39 NI AS NOT_NAMED 1926-09-07 21:00:00 TS 25.9373 74.3937 main 0 0 _________PP___ -1 26.0001 74.1926 TC 30 25.8955 74.5278 1 6 290
1926247N24087 1926 39 NI AS NOT_NAMED 1926-09-08 00:00:00 TS 26.0316 74.1075 main 0 0 _________OP___ -1 26.1000 73.9000 TC 30 25.9973 74.2113 1 5 290
1926247N24087 1926 39 NI AS NOT_NAMED 1926-09-08 03:00:00 NR 26.1000 73.9000 main 0 __________O___ -1 TC 26.1000 73.9000 1 4 290

IBTrACS Databaseについて

本データベースは、米国NOAAが公開する1842年以降の世界の熱帯低気圧のベストトラックデータアーカイブInternational Best Track Archive for Climate Stewardship (IBTrACS)を、ウェブで閲覧しやすい形式に変換したものです。

最終更新日:2021-10-19